METAR Data
IDs: Format: Raw Decoded Include TAF

Data at: 2102 UTC 02 Aug 2021

PAEN 022053Z 27008KT 10SM CLR 22/14 A3005 RMK AO2 SLP178 T02170144 57008